sensor_id;sensor_type;location;lat;lon;timestamp;P1;durP1;ratioP1;P2;durP2;ratioP2
4391;SDS011;2210;51.938;8.488;2023-09-19T00:02:24;1.67;;;1.47;;
4391;SDS011;2210;51.938;8.488;2023-09-19T00:06:36;2.77;;;1.40;;
4391;SDS011;2210;51.938;8.488;2023-09-19T00:10:37;1.30;;;1.20;;
4391;SDS011;2210;51.938;8.488;2023-09-19T00:14:42;1.50;;;1.40;;
4391;SDS011;2210;51.938;8.488;2023-09-19T00:18:46;1.90;;;1.33;;
4391;SDS011;2210;51.938;8.488;2023-09-19T00:22:52;4.20;;;1.67;;
4391;SDS011;2210;51.938;8.488;2023-09-19T00:26:53;1.40;;;1.30;;
4391;SDS011;2210;51.938;8.488;2023-09-19T00:30:57;2.27;;;1.40;;
4391;SDS011;2210;51.938;8.488;2023-09-19T00:35:04;5.23;;;1.40;;
4391;SDS011;2210;51.938;8.488;2023-09-19T00:39:05;2.60;;;1.30;;
4391;SDS011;2210;51.938;8.488;2023-09-19T00:43:06;2.90;;;1.33;;
4391;SDS011;2210;51.938;8.488;2023-09-19T00:47:06;2.97;;;2.10;;
4391;SDS011;2210;51.938;8.488;2023-09-19T00:51:15;3.17;;;1.83;;
4391;SDS011;2210;51.938;8.488;2023-09-19T00:55:28;3.43;;;1.73;;
4391;SDS011;2210;51.938;8.488;2023-09-19T00:59:33;5.00;;;2.00;;
4391;SDS011;2210;51.938;8.488;2023-09-19T01:03:41;6.40;;;1.87;;
4391;SDS011;2210;51.938;8.488;2023-09-19T01:07:42;4.20;;;2.30;;
4391;SDS011;2210;51.938;8.488;2023-09-19T01:11:48;4.27;;;2.17;;
4391;SDS011;2210;51.938;8.488;2023-09-19T01:20:26;2.47;;;2.20;;
4391;SDS011;2210;51.938;8.488;2023-09-19T01:34:00;2.57;;;2.00;;
4391;SDS011;2210;51.938;8.488;2023-09-19T01:38:01;7.40;;;2.40;;
4391;SDS011;2210;51.938;8.488;2023-09-19T01:42:08;5.40;;;2.47;;
4391;SDS011;2210;51.938;8.488;2023-09-19T01:46:18;3.90;;;2.40;;
4391;SDS011;2210;51.938;8.488;2023-09-19T01:50:32;4.23;;;2.70;;
4391;SDS011;2210;51.938;8.488;2023-09-19T01:55:02;7.07;;;2.40;;
4391;SDS011;2210;51.938;8.488;2023-09-19T01:59:13;9.10;;;2.67;;
4391;SDS011;2210;51.938;8.488;2023-09-19T02:03:16;4.60;;;2.77;;
4391;SDS011;2210;51.938;8.488;2023-09-19T02:07:16;5.80;;;2.60;;
4391;SDS011;2210;51.938;8.488;2023-09-19T02:11:17;7.20;;;2.30;;
4391;SDS011;2210;51.938;8.488;2023-09-19T02:15:17;5.03;;;2.77;;
4391;SDS011;2210;51.938;8.488;2023-09-19T02:19:30;3.90;;;2.47;;
4391;SDS011;2210;51.938;8.488;2023-09-19T02:23:32;7.67;;;2.60;;
4391;SDS011;2210;51.938;8.488;2023-09-19T02:27:39;4.67;;;2.00;;
4391;SDS011;2210;51.938;8.488;2023-09-19T02:31:45;4.60;;;1.80;;
4391;SDS011;2210;51.938;8.488;2023-09-19T02:35:55;5.03;;;2.27;;
4391;SDS011;2210;51.938;8.488;2023-09-19T02:40:00;10.30;;;1.97;;
4391;SDS011;2210;51.938;8.488;2023-09-19T02:44:04;3.57;;;2.00;;
4391;SDS011;2210;51.938;8.488;2023-09-19T02:48:13;7.10;;;2.40;;
4391;SDS011;2210;51.938;8.488;2023-09-19T02:52:15;8.43;;;2.50;;
4391;SDS011;2210;51.938;8.488;2023-09-19T02:56:18;6.87;;;2.40;;
4391;SDS011;2210;51.938;8.488;2023-09-19T03:00:25;11.37;;;2.37;;
4391;SDS011;2210;51.938;8.488;2023-09-19T03:04:25;6.07;;;2.27;;
4391;SDS011;2210;51.938;8.488;2023-09-19T03:08:27;4.13;;;1.83;;
4391;SDS011;2210;51.938;8.488;2023-09-19T03:12:27;5.87;;;2.43;;
4391;SDS011;2210;51.938;8.488;2023-09-19T03:16:28;4.93;;;2.00;;
4391;SDS011;2210;51.938;8.488;2023-09-19T03:20:28;4.10;;;1.70;;
4391;SDS011;2210;51.938;8.488;2023-09-19T03:24:28;7.97;;;2.97;;
4391;SDS011;2210;51.938;8.488;2023-09-19T03:28:29;4.17;;;1.73;;
4391;SDS011;2210;51.938;8.488;2023-09-19T03:32:30;3.83;;;1.73;;
4391;SDS011;2210;51.938;8.488;2023-09-19T03:36:30;5.37;;;1.70;;
4391;SDS011;2210;51.938;8.488;2023-09-19T03:40:30;4.40;;;1.93;;
4391;SDS011;2210;51.938;8.488;2023-09-19T03:44:40;4.00;;;2.00;;
4391;SDS011;2210;51.938;8.488;2023-09-19T03:48:46;3.10;;;1.53;;
4391;SDS011;2210;51.938;8.488;2023-09-19T03:52:50;5.53;;;1.90;;
4391;SDS011;2210;51.938;8.488;2023-09-19T03:56:50;8.10;;;2.10;;
4391;SDS011;2210;51.938;8.488;2023-09-19T04:00:57;5.72;;;1.80;;
4391;SDS011;2210;51.938;8.488;2023-09-19T04:04:58;4.07;;;1.90;;
4391;SDS011;2210;51.938;8.488;2023-09-19T04:09:05;4.60;;;1.80;;
4391;SDS011;2210;51.938;8.488;2023-09-19T04:13:07;6.70;;;1.50;;
4391;SDS011;2210;51.938;8.488;2023-09-19T04:17:16;6.97;;;1.90;;
4391;SDS011;2210;51.938;8.488;2023-09-19T04:21:17;6.73;;;2.03;;
4391;SDS011;2210;51.938;8.488;2023-09-19T04:25:27;6.47;;;1.60;;
4391;SDS011;2210;51.938;8.488;2023-09-19T04:29:31;3.63;;;1.37;;
4391;SDS011;2210;51.938;8.488;2023-09-19T04:33:31;6.70;;;1.80;;
4391;SDS011;2210;51.938;8.488;2023-09-19T04:37:53;4.77;;;1.33;;
4391;SDS011;2210;51.938;8.488;2023-09-19T04:41:57;7.70;;;1.60;;
4391;SDS011;2210;51.938;8.488;2023-09-19T04:46:01;3.03;;;1.63;;
4391;SDS011;2210;51.938;8.488;2023-09-19T04:50:09;7.40;;;2.00;;
4391;SDS011;2210;51.938;8.488;2023-09-19T04:54:13;4.30;;;1.77;;
4391;SDS011;2210;51.938;8.488;2023-09-19T04:58:14;2.50;;;1.37;;
4391;SDS011;2210;51.938;8.488;2023-09-19T05:02:15;5.70;;;1.90;;
4391;SDS011;2210;51.938;8.488;2023-09-19T05:06:15;7.50;;;1.47;;
4391;SDS011;2210;51.938;8.488;2023-09-19T05:10:16;7.27;;;1.80;;
4391;SDS011;2210;51.938;8.488;2023-09-19T05:14:18;4.30;;;1.80;;
4391;SDS011;2210;51.938;8.488;2023-09-19T05:18:25;5.47;;;2.00;;
4391;SDS011;2210;51.938;8.488;2023-09-19T05:22:31;6.20;;;2.00;;
4391;SDS011;2210;51.938;8.488;2023-09-19T05:26:46;5.13;;;1.77;;
4391;SDS011;2210;51.938;8.488;2023-09-19T05:35:06;9.20;;;1.87;;
4391;SDS011;2210;51.938;8.488;2023-09-19T05:39:09;2.40;;;1.60;;
4391;SDS011;2210;51.938;8.488;2023-09-19T05:43:13;4.17;;;1.60;;
4391;SDS011;2210;51.938;8.488;2023-09-19T05:47:14;4.10;;;1.30;;
4391;SDS011;2210;51.938;8.488;2023-09-19T05:51:14;6.83;;;2.10;;
4391;SDS011;2210;51.938;8.488;2023-09-19T05:55:14;5.23;;;1.70;;
4391;SDS011;2210;51.938;8.488;2023-09-19T05:59:15;8.73;;;1.90;;
4391;SDS011;2210;51.938;8.488;2023-09-19T06:03:15;6.00;;;1.93;;
4391;SDS011;2210;51.938;8.488;2023-09-19T06:07:20;3.63;;;1.40;;
4391;SDS011;2210;51.938;8.488;2023-09-19T06:11:23;8.57;;;2.10;;
4391;SDS011;2210;51.938;8.488;2023-09-19T06:15:29;3.90;;;2.23;;
4391;SDS011;2210;51.938;8.488;2023-09-19T06:19:35;3.97;;;1.50;;
4391;SDS011;2210;51.938;8.488;2023-09-19T06:23:38;12.60;;;2.13;;
4391;SDS011;2210;51.938;8.488;2023-09-19T06:27:51;2.60;;;1.30;;
4391;SDS011;2210;51.938;8.488;2023-09-19T06:31:59;9.10;;;1.90;;
4391;SDS011;2210;51.938;8.488;2023-09-19T06:36:07;4.93;;;1.70;;
4391;SDS011;2210;51.938;8.488;2023-09-19T06:40:23;3.37;;;1.40;;
4391;SDS011;2210;51.938;8.488;2023-09-19T06:44:24;4.00;;;1.73;;
4391;SDS011;2210;51.938;8.488;2023-09-19T06:48:27;2.73;;;1.43;;
4391;SDS011;2210;51.938;8.488;2023-09-19T06:52:35;6.23;;;1.60;;
4391;SDS011;2210;51.938;8.488;2023-09-19T06:56:45;4.80;;;1.43;;
4391;SDS011;2210;51.938;8.488;2023-09-19T07:00:45;8.30;;;2.00;;
4391;SDS011;2210;51.938;8.488;2023-09-19T07:04:46;4.10;;;1.47;;
4391;SDS011;2210;51.938;8.488;2023-09-19T07:08:46;4.43;;;1.93;;
4391;SDS011;2210;51.938;8.488;2023-09-19T07:12:54;5.60;;;1.90;;
4391;SDS011;2210;51.938;8.488;2023-09-19T07:17:01;3.40;;;1.57;;
4391;SDS011;2210;51.938;8.488;2023-09-19T07:21:09;4.70;;;1.80;;
4391;SDS011;2210;51.938;8.488;2023-09-19T07:25:10;7.93;;;1.77;;
4391;SDS011;2210;51.938;8.488;2023-09-19T07:29:13;6.23;;;1.50;;
4391;SDS011;2210;51.938;8.488;2023-09-19T07:33:14;6.97;;;1.33;;
4391;SDS011;2210;51.938;8.488;2023-09-19T07:37:14;3.87;;;1.60;;
4391;SDS011;2210;51.938;8.488;2023-09-19T07:41:24;1.63;;;1.20;;
4391;SDS011;2210;51.938;8.488;2023-09-19T07:45:25;3.03;;;1.13;;
4391;SDS011;2210;51.938;8.488;2023-09-19T07:49:25;4.20;;;2.30;;
4391;SDS011;2210;51.938;8.488;2023-09-19T07:53:29;5.78;;;1.60;;
4391;SDS011;2210;51.938;8.488;2023-09-19T07:57:45;6.60;;;1.83;;
4391;SDS011;2210;51.938;8.488;2023-09-19T08:01:46;7.40;;;2.17;;
4391;SDS011;2210;51.938;8.488;2023-09-19T08:05:48;5.03;;;1.70;;
4391;SDS011;2210;51.938;8.488;2023-09-19T08:09:49;3.23;;;1.37;;
4391;SDS011;2210;51.938;8.488;2023-09-19T08:13:49;4.33;;;1.40;;
4391;SDS011;2210;51.938;8.488;2023-09-19T08:17:59;4.50;;;1.67;;
4391;SDS011;2210;51.938;8.488;2023-09-19T08:22:02;3.53;;;1.90;;
4391;SDS011;2210;51.938;8.488;2023-09-19T08:26:02;7.47;;;1.97;;
4391;SDS011;2210;51.938;8.488;2023-09-19T08:30:17;7.23;;;1.70;;
4391;SDS011;2210;51.938;8.488;2023-09-19T08:34:40;6.23;;;1.63;;
4391;SDS011;2210;51.938;8.488;2023-09-19T08:38:44;4.97;;;1.63;;
4391;SDS011;2210;51.938;8.488;2023-09-19T08:42:48;6.13;;;1.80;;
4391;SDS011;2210;51.938;8.488;2023-09-19T08:46:54;4.43;;;1.90;;
4391;SDS011;2210;51.938;8.488;2023-09-19T08:51:07;12.83;;;1.80;;
4391;SDS011;2210;51.938;8.488;2023-09-19T08:55:16;5.07;;;1.53;;
4391;SDS011;2210;51.938;8.488;2023-09-19T08:59:37;7.40;;;1.60;;
4391;SDS011;2210;51.938;8.488;2023-09-19T09:03:40;7.80;;;2.17;;
4391;SDS011;2210;51.938;8.488;2023-09-19T09:07:43;5.10;;;1.27;;
4391;SDS011;2210;51.938;8.488;2023-09-19T09:11:44;6.80;;;2.57;;
4391;SDS011;2210;51.938;8.488;2023-09-19T09:15:47;10.00;;;2.03;;
4391;SDS011;2210;51.938;8.488;2023-09-19T09:20:00;6.93;;;1.80;;
4391;SDS011;2210;51.938;8.488;2023-09-19T09:24:21;6.37;;;2.23;;
4391;SDS011;2210;51.938;8.488;2023-09-19T09:28:45;5.40;;;1.83;;
4391;SDS011;2210;51.938;8.488;2023-09-19T09:32:47;9.10;;;1.20;;
4391;SDS011;2210;51.938;8.488;2023-09-19T09:37:12;5.63;;;1.70;;
4391;SDS011;2210;51.938;8.488;2023-09-19T09:41:15;8.27;;;1.80;;
4391;SDS011;2210;51.938;8.488;2023-09-19T09:45:27;6.77;;;1.97;;
4391;SDS011;2210;51.938;8.488;2023-09-19T09:49:39;3.70;;;1.73;;
4391;SDS011;2210;51.938;8.488;2023-09-19T09:53:39;4.23;;;1.70;;
4391;SDS011;2210;51.938;8.488;2023-09-19T09:57:40;6.00;;;1.97;;
4391;SDS011;2210;51.938;8.488;2023-09-19T10:01:47;6.67;;;2.23;;
4391;SDS011;2210;51.938;8.488;2023-09-19T10:05:53;8.83;;;1.73;;
4391;SDS011;2210;51.938;8.488;2023-09-19T10:09:59;8.97;;;1.80;;
4391;SDS011;2210;51.938;8.488;2023-09-19T10:14:14;4.73;;;1.40;;
4391;SDS011;2210;51.938;8.488;2023-09-19T10:18:37;6.97;;;2.00;;
4391;SDS011;2210;51.938;8.488;2023-09-19T10:22:39;4.23;;;1.37;;
4391;SDS011;2210;51.938;8.488;2023-09-19T10:26:45;8.53;;;1.90;;
4391;SDS011;2210;51.938;8.488;2023-09-19T10:30:46;6.40;;;1.70;;
4391;SDS011;2210;51.938;8.488;2023-09-19T10:34:49;5.23;;;1.70;;
4391;SDS011;2210;51.938;8.488;2023-09-19T10:38:56;8.07;;;1.77;;
4391;SDS011;2210;51.938;8.488;2023-09-19T10:43:03;3.73;;;1.60;;
4391;SDS011;2210;51.938;8.488;2023-09-19T10:47:08;2.63;;;1.30;;
4391;SDS011;2210;51.938;8.488;2023-09-19T10:51:16;3.13;;;1.33;;
4391;SDS011;2210;51.938;8.488;2023-09-19T10:55:38;6.47;;;2.03;;
4391;SDS011;2210;51.938;8.488;2023-09-19T11:13:31;4.47;;;1.53;;
4391;SDS011;2210;51.938;8.488;2023-09-19T11:17:43;4.57;;;1.50;;
4391;SDS011;2210;51.938;8.488;2023-09-19T11:21:53;7.30;;;1.70;;
4391;SDS011;2210;51.938;8.488;2023-09-19T11:25:57;9.43;;;1.60;;
4391;SDS011;2210;51.938;8.488;2023-09-19T11:34:43;3.50;;;1.67;;
4391;SDS011;2210;51.938;8.488;2023-09-19T11:43:27;9.40;;;1.57;;
4391;SDS011;2210;51.938;8.488;2023-09-19T11:47:33;9.07;;;2.00;;
4391;SDS011;2210;51.938;8.488;2023-09-19T11:51:45;6.70;;;1.50;;
4391;SDS011;2210;51.938;8.488;2023-09-19T11:55:51;2.97;;;1.90;;
4391;SDS011;2210;51.938;8.488;2023-09-19T11:59:55;5.80;;;1.77;;
4391;SDS011;2210;51.938;8.488;2023-09-19T12:03:57;4.93;;;1.70;;
4391;SDS011;2210;51.938;8.488;2023-09-19T12:08:02;4.47;;;1.50;;
4391;SDS011;2210;51.938;8.488;2023-09-19T12:12:10;5.13;;;1.67;;
4391;SDS011;2210;51.938;8.488;2023-09-19T12:16:13;4.53;;;1.27;;
4391;SDS011;2210;51.938;8.488;2023-09-19T12:20:17;3.07;;;2.00;;
4391;SDS011;2210;51.938;8.488;2023-09-19T12:24:21;4.70;;;1.70;;
4391;SDS011;2210;51.938;8.488;2023-09-19T12:28:28;6.73;;;2.07;;
4391;SDS011;2210;51.938;8.488;2023-09-19T12:32:35;3.47;;;1.60;;
4391;SDS011;2210;51.938;8.488;2023-09-19T12:36:36;7.07;;;1.70;;
4391;SDS011;2210;51.938;8.488;2023-09-19T12:40:42;10.00;;;1.60;;
4391;SDS011;2210;51.938;8.488;2023-09-19T12:44:52;10.43;;;1.77;;
4391;SDS011;2210;51.938;8.488;2023-09-19T12:49:14;2.77;;;1.33;;
4391;SDS011;2210;51.938;8.488;2023-09-19T12:53:29;2.80;;;1.20;;
4391;SDS011;2210;51.938;8.488;2023-09-19T12:57:29;6.60;;;1.53;;
4391;SDS011;2210;51.938;8.488;2023-09-19T13:01:44;4.43;;;1.60;;
4391;SDS011;2210;51.938;8.488;2023-09-19T13:05:47;2.30;;;1.17;;
4391;SDS011;2210;51.938;8.488;2023-09-19T13:10:04;3.87;;;1.53;;
4391;SDS011;2210;51.938;8.488;2023-09-19T13:14:15;10.40;;;1.90;;
4391;SDS011;2210;51.938;8.488;2023-09-19T13:18:18;2.93;;;1.20;;
4391;SDS011;2210;51.938;8.488;2023-09-19T13:26:49;3.10;;;1.23;;
4391;SDS011;2210;51.938;8.488;2023-09-19T13:31:05;4.70;;;1.55;;
4391;SDS011;2210;51.938;8.488;2023-09-19T13:35:11;3.30;;;1.40;;
4391;SDS011;2210;51.938;8.488;2023-09-19T13:39:12;2.90;;;1.30;;
4391;SDS011;2210;51.938;8.488;2023-09-19T13:43:16;3.57;;;1.50;;
4391;SDS011;2210;51.938;8.488;2023-09-19T13:47:16;11.60;;;1.63;;
4391;SDS011;2210;51.938;8.488;2023-09-19T13:51:16;2.40;;;1.30;;
4391;SDS011;2210;51.938;8.488;2023-09-19T13:55:19;2.90;;;1.20;;
4391;SDS011;2210;51.938;8.488;2023-09-19T13:59:22;6.67;;;1.90;;
4391;SDS011;2210;51.938;8.488;2023-09-19T14:03:26;3.50;;;1.50;;
4391;SDS011;2210;51.938;8.488;2023-09-19T14:07:37;2.03;;;1.40;;
4391;SDS011;2210;51.938;8.488;2023-09-19T14:11:43;1.73;;;1.17;;
4391;SDS011;2210;51.938;8.488;2023-09-19T14:15:50;6.10;;;1.10;;
4391;SDS011;2210;51.938;8.488;2023-09-19T14:19:50;2.07;;;1.00;;
4391;SDS011;2210;51.938;8.488;2023-09-19T14:23:51;3.23;;;1.47;;
4391;SDS011;2210;51.938;8.488;2023-09-19T14:27:54;4.50;;;1.37;;
4391;SDS011;2210;51.938;8.488;2023-09-19T14:32:06;8.10;;;1.87;;
4391;SDS011;2210;51.938;8.488;2023-09-19T14:36:07;4.50;;;1.30;;
4391;SDS011;2210;51.938;8.488;2023-09-19T14:40:09;4.10;;;1.60;;
4391;SDS011;2210;51.938;8.488;2023-09-19T14:44:15;2.67;;;1.27;;
4391;SDS011;2210;51.938;8.488;2023-09-19T14:48:19;2.53;;;1.30;;
4391;SDS011;2210;51.938;8.488;2023-09-19T14:52:32;6.00;;;1.20;;
4391;SDS011;2210;51.938;8.488;2023-09-19T14:56:34;5.07;;;1.77;;
4391;SDS011;2210;51.938;8.488;2023-09-19T15:00:34;2.13;;;1.20;;
4391;SDS011;2210;51.938;8.488;2023-09-19T15:04:41;6.90;;;1.77;;
4391;SDS011;2210;51.938;8.488;2023-09-19T15:08:41;5.13;;;1.77;;
4391;SDS011;2210;51.938;8.488;2023-09-19T15:12:47;6.23;;;1.60;;
4391;SDS011;2210;51.938;8.488;2023-09-19T15:16:48;3.87;;;1.20;;
4391;SDS011;2210;51.938;8.488;2023-09-19T15:20:48;3.53;;;1.30;;
4391;SDS011;2210;51.938;8.488;2023-09-19T15:24:52;3.40;;;1.33;;
4391;SDS011;2210;51.938;8.488;2023-09-19T15:28:58;4.20;;;1.43;;
4391;SDS011;2210;51.938;8.488;2023-09-19T15:33:14;2.80;;;1.33;;
4391;SDS011;2210;51.938;8.488;2023-09-19T15:37:17;3.63;;;1.60;;
4391;SDS011;2210;51.938;8.488;2023-09-19T15:41:30;3.33;;;1.20;;
4391;SDS011;2210;51.938;8.488;2023-09-19T15:45:38;2.80;;;1.20;;
4391;SDS011;2210;51.938;8.488;2023-09-19T15:49:38;4.47;;;1.40;;
4391;SDS011;2210;51.938;8.488;2023-09-19T15:53:45;1.80;;;1.15;;
4391;SDS011;2210;51.938;8.488;2023-09-19T15:57:50;1.87;;;1.03;;
4391;SDS011;2210;51.938;8.488;2023-09-19T16:01:52;1.10;;;1.00;;
4391;SDS011;2210;51.938;8.488;2023-09-19T16:05:52;3.03;;;1.00;;
4391;SDS011;2210;51.938;8.488;2023-09-19T16:09:52;2.80;;;0.77;;
4391;SDS011;2210;51.938;8.488;2023-09-19T16:13:59;1.80;;;0.80;;
4391;SDS011;2210;51.938;8.488;2023-09-19T16:18:12;1.50;;;0.90;;
4391;SDS011;2210;51.938;8.488;2023-09-19T16:22:16;2.00;;;0.80;;
4391;SDS011;2210;51.938;8.488;2023-09-19T16:26:17;2.87;;;1.00;;
4391;SDS011;2210;51.938;8.488;2023-09-19T16:30:21;2.10;;;1.20;;
4391;SDS011;2210;51.938;8.488;2023-09-19T16:34:21;1.97;;;0.70;;
4391;SDS011;2210;51.938;8.488;2023-09-19T16:38:27;2.10;;;0.73;;
4391;SDS011;2210;51.938;8.488;2023-09-19T16:42:29;1.57;;;0.80;;
4391;SDS011;2210;51.938;8.488;2023-09-19T16:46:30;1.80;;;0.70;;
4391;SDS011;2210;51.938;8.488;2023-09-19T16:50:33;1.00;;;0.83;;
4391;SDS011;2210;51.938;8.488;2023-09-19T16:54:36;3.23;;;1.03;;
4391;SDS011;2210;51.938;8.488;2023-09-19T16:58:37;6.53;;;1.03;;
4391;SDS011;2210;51.938;8.488;2023-09-19T17:02:41;1.73;;;0.80;;
4391;SDS011;2210;51.938;8.488;2023-09-19T17:06:42;1.23;;;0.87;;
4391;SDS011;2210;51.938;8.488;2023-09-19T17:10:49;2.20;;;0.83;;
4391;SDS011;2210;51.938;8.488;2023-09-19T17:14:49;2.80;;;0.90;;
4391;SDS011;2210;51.938;8.488;2023-09-19T17:18:59;1.00;;;0.70;;
4391;SDS011;2210;51.938;8.488;2023-09-19T17:23:03;3.20;;;1.03;;
4391;SDS011;2210;51.938;8.488;2023-09-19T17:27:03;3.30;;;1.30;;
4391;SDS011;2210;51.938;8.488;2023-09-19T17:31:17;8.63;;;1.10;;
4391;SDS011;2210;51.938;8.488;2023-09-19T17:35:31;3.93;;;1.20;;
4391;SDS011;2210;51.938;8.488;2023-09-19T17:39:31;3.17;;;1.10;;
4391;SDS011;2210;51.938;8.488;2023-09-19T17:43:32;2.40;;;1.20;;
4391;SDS011;2210;51.938;8.488;2023-09-19T17:47:40;2.40;;;1.10;;
4391;SDS011;2210;51.938;8.488;2023-09-19T17:51:44;2.80;;;1.50;;
4391;SDS011;2210;51.938;8.488;2023-09-19T17:55:45;2.80;;;1.27;;
4391;SDS011;2210;51.938;8.488;2023-09-19T17:59:46;4.70;;;1.30;;
4391;SDS011;2210;51.938;8.488;2023-09-19T18:03:47;1.90;;;1.07;;
4391;SDS011;2210;51.938;8.488;2023-09-19T18:07:57;1.87;;;1.17;;
4391;SDS011;2210;51.938;8.488;2023-09-19T18:12:06;1.57;;;1.03;;
4391;SDS011;2210;51.938;8.488;2023-09-19T18:16:10;2.60;;;1.00;;
4391;SDS011;2210;51.938;8.488;2023-09-19T18:20:11;2.60;;;1.00;;
4391;SDS011;2210;51.938;8.488;2023-09-19T18:24:14;6.80;;;1.07;;
4391;SDS011;2210;51.938;8.488;2023-09-19T18:28:15;1.30;;;1.00;;
4391;SDS011;2210;51.938;8.488;2023-09-19T18:32:15;1.20;;;0.80;;
4391;SDS011;2210;51.938;8.488;2023-09-19T18:36:15;3.70;;;1.10;;
4391;SDS011;2210;51.938;8.488;2023-09-19T18:40:16;2.40;;;1.10;;
4391;SDS011;2210;51.938;8.488;2023-09-19T18:48:46;3.07;;;0.80;;
4391;SDS011;2210;51.938;8.488;2023-09-19T18:52:47;1.73;;;1.03;;
4391;SDS011;2210;51.938;8.488;2023-09-19T18:56:47;1.47;;;0.80;;
4391;SDS011;2210;51.938;8.488;2023-09-19T19:00:47;2.97;;;0.90;;
4391;SDS011;2210;51.938;8.488;2023-09-19T19:04:53;1.17;;;0.70;;
4391;SDS011;2210;51.938;8.488;2023-09-19T19:08:54;1.50;;;0.90;;
4391;SDS011;2210;51.938;8.488;2023-09-19T19:13:00;1.00;;;0.93;;
4391;SDS011;2210;51.938;8.488;2023-09-19T19:17:03;1.53;;;0.80;;
4391;SDS011;2210;51.938;8.488;2023-09-19T19:21:07;0.80;;;0.80;;
4391;SDS011;2210;51.938;8.488;2023-09-19T19:25:28;2.10;;;1.07;;
4391;SDS011;2210;51.938;8.488;2023-09-19T19:29:28;3.10;;;1.03;;
4391;SDS011;2210;51.938;8.488;2023-09-19T19:33:31;1.17;;;1.00;;
4391;SDS011;2210;51.938;8.488;2023-09-19T19:37:32;1.87;;;0.80;;
4391;SDS011;2210;51.938;8.488;2023-09-19T19:41:34;2.10;;;1.00;;
4391;SDS011;2210;51.938;8.488;2023-09-19T19:45:53;1.40;;;0.77;;
4391;SDS011;2210;51.938;8.488;2023-09-19T19:49:54;7.90;;;0.83;;
4391;SDS011;2210;51.938;8.488;2023-09-19T19:54:03;2.53;;;1.50;;
4391;SDS011;2210;51.938;8.488;2023-09-19T19:58:06;7.13;;;1.67;;
4391;SDS011;2210;51.938;8.488;2023-09-19T20:02:10;2.93;;;1.00;;
4391;SDS011;2210;51.938;8.488;2023-09-19T20:06:13;6.20;;;1.17;;
4391;SDS011;2210;51.938;8.488;2023-09-19T20:10:18;0.90;;;0.70;;
4391;SDS011;2210;51.938;8.488;2023-09-19T20:14:25;3.87;;;1.27;;
4391;SDS011;2210;51.938;8.488;2023-09-19T20:18:28;1.20;;;0.90;;
4391;SDS011;2210;51.938;8.488;2023-09-19T20:22:31;7.30;;;1.03;;
4391;SDS011;2210;51.938;8.488;2023-09-19T20:26:33;2.30;;;1.10;;
4391;SDS011;2210;51.938;8.488;2023-09-19T20:30:34;2.73;;;1.10;;
4391;SDS011;2210;51.938;8.488;2023-09-19T20:34:40;2.87;;;1.00;;
4391;SDS011;2210;51.938;8.488;2023-09-19T20:38:44;5.60;;;1.17;;
4391;SDS011;2210;51.938;8.488;2023-09-19T20:42:44;2.43;;;1.10;;
4391;SDS011;2210;51.938;8.488;2023-09-19T20:46:57;1.77;;;0.80;;
4391;SDS011;2210;51.938;8.488;2023-09-19T20:51:04;3.80;;;1.20;;
4391;SDS011;2210;51.938;8.488;2023-09-19T20:55:17;2.40;;;1.00;;
4391;SDS011;2210;51.938;8.488;2023-09-19T20:59:17;1.73;;;0.90;;
4391;SDS011;2210;51.938;8.488;2023-09-19T21:03:18;2.10;;;1.17;;
4391;SDS011;2210;51.938;8.488;2023-09-19T21:07:25;1.10;;;0.87;;
4391;SDS011;2210;51.938;8.488;2023-09-19T21:11:35;3.27;;;1.30;;
4391;SDS011;2210;51.938;8.488;2023-09-19T21:15:40;3.50;;;1.13;;
4391;SDS011;2210;51.938;8.488;2023-09-19T21:19:41;1.33;;;0.90;;
4391;SDS011;2210;51.938;8.488;2023-09-19T21:23:44;2.03;;;1.23;;
4391;SDS011;2210;51.938;8.488;2023-09-19T21:27:45;2.00;;;1.00;;
4391;SDS011;2210;51.938;8.488;2023-09-19T21:31:46;1.60;;;1.00;;
4391;SDS011;2210;51.938;8.488;2023-09-19T21:35:47;5.40;;;1.43;;
4391;SDS011;2210;51.938;8.488;2023-09-19T21:39:50;2.70;;;0.97;;
4391;SDS011;2210;51.938;8.488;2023-09-19T21:44:06;1.40;;;0.80;;
4391;SDS011;2210;51.938;8.488;2023-09-19T21:48:06;1.77;;;1.10;;
4391;SDS011;2210;51.938;8.488;2023-09-19T21:52:10;6.00;;;1.00;;
4391;SDS011;2210;51.938;8.488;2023-09-19T21:56:11;1.20;;;0.90;;
4391;SDS011;2210;51.938;8.488;2023-09-19T22:00:18;3.77;;;1.20;;
4391;SDS011;2210;51.938;8.488;2023-09-19T22:04:33;3.50;;;1.40;;
4391;SDS011;2210;51.938;8.488;2023-09-19T22:08:34;4.37;;;1.50;;
4391;SDS011;2210;51.938;8.488;2023-09-19T22:12:45;3.80;;;1.03;;
4391;SDS011;2210;51.938;8.488;2023-09-19T22:16:45;3.67;;;0.87;;
4391;SDS011;2210;51.938;8.488;2023-09-19T22:21:00;2.70;;;1.30;;
4391;SDS011;2210;51.938;8.488;2023-09-19T22:25:22;3.40;;;1.07;;
4391;SDS011;2210;51.938;8.488;2023-09-19T22:29:30;2.10;;;1.00;;
4391;SDS011;2210;51.938;8.488;2023-09-19T22:33:33;1.57;;;1.20;;
4391;SDS011;2210;51.938;8.488;2023-09-19T22:37:37;3.17;;;1.00;;
4391;SDS011;2210;51.938;8.488;2023-09-19T22:41:37;2.30;;;1.20;;
4391;SDS011;2210;51.938;8.488;2023-09-19T22:45:48;2.40;;;1.10;;
4391;SDS011;2210;51.938;8.488;2023-09-19T22:49:49;1.63;;;1.03;;
4391;SDS011;2210;51.938;8.488;2023-09-19T22:53:53;4.27;;;1.30;;
4391;SDS011;2210;51.938;8.488;2023-09-19T22:58:08;5.27;;;1.40;;
4391;SDS011;2210;51.938;8.488;2023-09-19T23:02:13;2.93;;;1.13;;
4391;SDS011;2210;51.938;8.488;2023-09-19T23:06:13;7.50;;;1.40;;
4391;SDS011;2210;51.938;8.488;2023-09-19T23:10:21;7.70;;;1.43;;
4391;SDS011;2210;51.938;8.488;2023-09-19T23:14:25;3.43;;;1.10;;
4391;SDS011;2210;51.938;8.488;2023-09-19T23:18:44;3.40;;;1.27;;
4391;SDS011;2210;51.938;8.488;2023-09-19T23:22:48;1.00;;;0.90;;
4391;SDS011;2210;51.938;8.488;2023-09-19T23:26:54;1.80;;;1.10;;
4391;SDS011;2210;51.938;8.488;2023-09-19T23:31:04;4.63;;;1.20;;
4391;SDS011;2210;51.938;8.488;2023-09-19T23:35:08;4.00;;;1.73;;
4391;SDS011;2210;51.938;8.488;2023-09-19T23:39:12;2.30;;;1.20;;
4391;SDS011;2210;51.938;8.488;2023-09-19T23:43:16;2.50;;;1.20;;
4391;SDS011;2210;51.938;8.488;2023-09-19T23:47:17;2.10;;;1.20;;
4391;SDS011;2210;51.938;8.488;2023-09-19T23:51:18;2.17;;;1.20;;
4391;SDS011;2210;51.938;8.488;2023-09-19T23:55:32;2.30;;;1.10;;
4391;SDS011;2210;51.938;8.488;2023-09-19T23:59:36;3.20;;;1.10;;
